Time;durP1;ratioP1;P1;durP2;ratioP2;P2;SDS_P1;SDS_P2;PMS_P1;PMS_P2;Temp;Humidity;BMP_temperature;BMP_pressure;BME280_temperature;BME280_humidity;BME280_pressure;Samples;Min_cycle;Max_cycle;Signal;HPM_P1;HPM_P2
2022/03/16 00:01:54;;;;;;;14.83;9.33;;;8.20;52.60;;;;;;6273298;28;20193;-68
2022/03/16 00:04:55;;;;;;;11.80;8.63;;;8.00;53.20;;;;;;6282263;28;20259;-68
2022/03/16 00:07:56;;;;;;;11.90;9.03;;;7.90;53.30;;;;;;6282603;28;20239;-68
2022/03/16 00:11:01;;;;;;;15.30;9.90;;;8.00;53.20;;;;;;6261255;28;20189;-68
2022/03/16 00:14:02;;;;;;;11.13;8.67;;;8.00;53.00;;;;;;6282500;28;20198;-68
2022/03/16 00:17:05;;;;;;;15.97;10.90;;;8.00;53.20;;;;;;6280397;28;20229;-69
2022/03/16 00:20:06;;;;;;;13.80;10.60;;;8.00;53.30;;;;;;6275248;28;20276;-66
2022/03/16 00:23:07;;;;;;;13.33;9.53;;;7.90;53.20;;;;;;6282243;28;20181;-65
2022/03/16 00:26:07;;;;;;;11.60;8.50;;;7.90;53.40;;;;;;6261897;28;20228;-64
2022/03/16 00:29:08;;;;;;;31.63;22.00;;;7.80;53.60;;;;;;6265695;28;20189;-65
2022/03/16 00:32:09;;;;;;;21.47;15.27;;;7.80;53.80;;;;;;6264815;28;20287;-65
2022/03/16 00:35:10;;;;;;;17.03;11.83;;;7.80;53.70;;;;;;6281899;28;20237;-64
2022/03/16 00:38:13;;;;;;;17.60;12.07;;;7.80;53.70;;;;;;6299015;28;20213;-65
2022/03/16 00:41:15;;;;;;;13.33;9.93;;;7.80;54.40;;;;;;6277846;28;20218;-68
2022/03/16 00:44:16;;;;;;;12.87;9.40;;;7.70;55.10;;;;;;6257068;28;20190;-68
2022/03/16 00:47:17;;;;;;;14.03;9.33;;;7.70;55.50;;;;;;6290046;28;20216;-68
2022/03/16 00:50:18;;;;;;;14.97;8.03;;;7.60;55.70;;;;;;6256991;28;20197;-67
2022/03/16 00:53:18;;;;;;;10.47;8.10;;;7.50;55.90;;;;;;6256914;28;20194;-67
2022/03/16 00:56:20;;;;;;;12.23;8.13;;;7.40;56.20;;;;;;6273172;28;20193;-66
2022/03/16 00:59:20;;;;;;;13.83;9.30;;;7.30;56.30;;;;;;6274319;28;20208;-67
2022/03/16 01:02:21;;;;;;;12.83;9.47;;;7.40;56.10;;;;;;6263836;28;20195;-67
2022/03/16 01:05:22;;;;;;;8.83;7.67;;;7.50;55.70;;;;;;6264918;28;20189;-67
2022/03/16 01:08:23;;;;;;;11.23;7.87;;;7.50;55.40;;;;;;6267505;28;20262;-66
2022/03/16 01:11:24;;;;;;;9.97;8.00;;;7.50;55.50;;;;;;6253642;28;20280;-67
2022/03/16 01:14:25;;;;;;;9.40;8.00;;;7.50;56.10;;;;;;6256452;28;20247;-68
2022/03/16 01:17:53;;;;;;;13.80;8.90;;;7.40;56.20;;;;;;6274798;28;20239;-68
2022/03/16 01:20:54;;;;;;;10.87;8.27;;;7.30;56.40;;;;;;6258495;28;20347;-68
2022/03/16 01:23:55;;;;;;;9.87;7.80;;;7.40;56.60;;;;;;6278828;28;20225;-68
2022/03/16 01:26:56;;;;;;;10.97;8.07;;;7.30;56.60;;;;;;6271279;28;20229;-68
2022/03/16 01:29:58;;;;;;;9.53;7.87;;;7.30;56.70;;;;;;6248701;28;20193;-69
2022/03/16 01:32:58;;;;;;;14.07;7.97;;;7.30;56.70;;;;;;6248106;28;20228;-69
2022/03/16 01:35:59;;;;;;;12.43;7.67;;;7.30;56.60;;;;;;6264017;28;20193;-69
2022/03/16 01:39:00;;;;;;;17.20;8.23;;;7.30;56.40;;;;;;6281033;28;20435;-69
2022/03/16 01:42:01;;;;;;;10.93;7.93;;;7.40;56.40;;;;;;6282147;28;20184;-67
2022/03/16 01:45:03;;;;;;;13.80;7.80;;;7.40;56.30;;;;;;6289537;28;20268;-66
2022/03/16 01:48:05;;;;;;;9.90;7.30;;;7.50;56.30;;;;;;6285712;28;20281;-66
2022/03/16 01:51:05;;;;;;;12.90;8.90;;;7.50;56.60;;;;;;6269526;28;20177;-66
2022/03/16 01:54:06;;;;;;;11.30;7.93;;;7.50;56.60;;;;;;6262470;28;20189;-66
2022/03/16 01:57:09;;;;;;;11.80;7.73;;;7.50;57.00;;;;;;6285329;28;20211;-66
2022/03/16 02:00:11;;;;;;;9.97;7.43;;;7.50;57.20;;;;;;6285599;28;20244;-66
2022/03/16 02:03:16;;;;;;;16.03;8.40;;;7.50;57.30;;;;;;6285641;28;20205;-66
2022/03/16 02:06:16;;;;;;;11.47;7.63;;;7.50;57.70;;;;;;6268497;28;20210;-66
2022/03/16 02:09:18;;;;;;;13.67;9.20;;;7.50;57.10;;;;;;6256877;28;20200;-66
2022/03/16 02:12:19;;;;;;;12.80;7.50;;;7.50;57.50;;;;;;6269135;28;20257;-67
2022/03/16 02:15:21;;;;;;;7.97;6.50;;;7.50;57.50;;;;;;6269937;28;20300;-67
2022/03/16 02:18:22;;;;;;;12.00;8.07;;;7.60;57.50;;;;;;6276826;28;20194;-67
2022/03/16 02:21:23;;;;;;;9.20;7.13;;;7.50;57.70;;;;;;6284739;28;20267;-67
2022/03/16 02:24:25;;;;;;;10.57;7.00;;;7.60;58.00;;;;;;6265518;28;20196;-67
2022/03/16 02:27:26;;;;;;;10.57;7.33;;;7.60;58.30;;;;;;6272594;28;20205;-67
2022/03/16 02:30:28;;;;;;;9.37;6.70;;;7.70;58.50;;;;;;6268518;28;20209;-67
2022/03/16 02:33:30;;;;;;;8.97;6.60;;;7.70;58.90;;;;;;6268387;28;20186;-67
2022/03/16 02:36:31;;;;;;;8.83;6.87;;;7.80;58.10;;;;;;6266733;28;20189;-68
2022/03/16 02:39:32;;;;;;;8.07;6.10;;;7.80;58.20;;;;;;6259712;28;20221;-67
2022/03/16 02:42:33;;;;;;;10.20;6.77;;;7.90;58.70;;;;;;6279302;28;20215;-67
2022/03/16 02:45:34;;;;;;;11.53;6.10;;;7.90;60.40;;;;;;6284491;28;20189;-67
2022/03/16 02:48:35;;;;;;;9.30;6.80;;;8.00;59.70;;;;;;6268189;28;20213;-66
2022/03/16 02:51:36;;;;;;;10.07;6.43;;;8.00;58.70;;;;;;6284446;28;20189;-66
2022/03/16 02:54:37;;;;;;;10.80;6.17;;;8.00;59.90;;;;;;6247633;28;20197;-66
2022/03/16 02:57:38;;;;;;;11.40;6.87;;;8.00;60.70;;;;;;6294929;28;20209;-65
2022/03/16 03:00:39;;;;;;;10.70;7.00;;;8.10;62.10;;;;;;6267418;28;20252;-65
2022/03/16 03:03:39;;;;;;;10.50;7.23;;;8.00;62.40;;;;;;6284501;28;20184;-65
2022/03/16 03:06:40;;;;;;;11.03;7.53;;;8.00;63.50;;;;;;6284336;28;20181;-66
2022/03/16 03:09:41;;;;;;;14.60;7.73;;;8.00;65.10;;;;;;6265137;28;20249;-67
2022/03/16 03:12:42;;;;;;;8.10;6.73;;;7.90;65.40;;;;;;6283302;28;20210;-67
2022/03/16 03:15:43;;;;;;;11.60;7.03;;;8.00;66.80;;;;;;6274785;28;20193;-67
2022/03/16 03:18:44;;;;;;;8.77;6.97;;;7.90;67.30;;;;;;6253206;28;20250;-67
2022/03/16 03:21:44;;;;;;;6.67;5.97;;;7.90;68.10;;;;;;6283662;28;20184;-67
2022/03/16 03:24:45;;;;;;;11.17;6.73;;;7.90;68.70;;;;;;6266473;28;20303;-67
2022/03/16 03:27:46;;;;;;;8.17;6.00;;;7.80;69.20;;;;;;6283285;28;20185;-67
2022/03/16 03:30:47;;;;;;;6.33;4.77;;;7.80;69.60;;;;;;6251147;28;20205;-68
2022/03/16 03:33:48;;;;;;;7.90;5.33;;;7.80;68.80;;;;;;6266606;28;20267;-68
2022/03/16 03:36:49;;;;;;;8.87;5.20;;;7.80;69.40;;;;;;6279794;28;20190;-68
2022/03/16 03:39:50;;;;;;;9.93;5.87;;;7.80;68.70;;;;;;6297004;28;20220;-68
2022/03/16 03:42:51;;;;;;;9.17;5.90;;;7.90;68.00;;;;;;6290581;28;20309;-69
2022/03/16 03:45:52;;;;;;;7.60;4.90;;;7.90;68.80;;;;;;6302696;28;20196;-69
2022/03/16 03:48:53;;;;;;;11.57;6.27;;;7.90;68.70;;;;;;6295652;28;20202;-65
2022/03/16 03:51:54;;;;;;;6.63;5.17;;;8.10;68.60;;;;;;6295713;28;20185;-66
2022/03/16 03:54:54;;;;;;;8.77;5.83;;;8.10;68.00;;;;;;6293133;28;20188;-67
2022/03/16 03:57:57;;;;;;;6.70;5.03;;;8.10;68.10;;;;;;6294541;28;20200;-68
2022/03/16 04:00:58;;;;;;;8.03;5.47;;;8.10;68.50;;;;;;6296760;28;20220;-67
2022/03/16 04:03:59;;;;;;;7.70;4.93;;;8.10;68.80;;;;;;6286476;28;20188;-67
2022/03/16 04:07:00;;;;;;;6.47;4.83;;;8.10;69.50;;;;;;6287483;28;20185;-65
2022/03/16 04:10:00;;;;;;;7.33;5.27;;;8.10;69.50;;;;;;6269314;28;20192;-65
2022/03/16 04:13:05;;;;;;;9.50;5.47;;;8.10;69.70;;;;;;6282262;28;20223;-65
2022/03/16 04:16:06;;;;;;;6.53;5.40;;;8.10;69.90;;;;;;6267826;28;20657;-65
2022/03/16 04:19:06;;;;;;;8.37;5.00;;;8.10;70.20;;;;;;6293042;28;20222;-65
2022/03/16 04:22:09;;;;;;;6.70;5.03;;;8.10;70.00;;;;;;6292823;28;20198;-65
2022/03/16 04:25:10;;;;;;;7.17;5.20;;;8.10;69.70;;;;;;6295538;28;20574;-65
2022/03/16 04:28:11;;;;;;;8.90;6.13;;;8.20;69.80;;;;;;6298843;28;20195;-65
2022/03/16 04:31:12;;;;;;;8.23;5.30;;;8.20;70.20;;;;;;6295656;28;20184;-65
2022/03/16 04:34:13;;;;;;;9.57;5.33;;;8.30;70.00;;;;;;6294552;28;20193;-65
2022/03/16 04:37:14;;;;;;;6.03;4.63;;;8.20;69.90;;;;;;6292685;28;20195;-65
2022/03/16 04:40:15;;;;;;;7.20;4.73;;;8.20;70.00;;;;;;6318705;28;20214;-65
2022/03/16 04:43:16;;;;;;;10.33;4.97;;;8.20;70.20;;;;;;6299789;28;20275;-65
2022/03/16 04:46:16;;;;;;;9.13;5.30;;;8.20;70.20;;;;;;6301642;28;20215;-65
2022/03/16 04:49:17;;;;;;;6.40;4.43;;;8.20;71.20;;;;;;6300556;28;20203;-65
2022/03/16 04:52:18;;;;;;;6.53;4.70;;;8.10;70.50;;;;;;6294741;28;20189;-64
2022/03/16 04:55:19;;;;;;;10.33;5.33;;;8.10;70.60;;;;;;6293642;28;20196;-64
2022/03/16 04:58:20;;;;;;;9.03;5.60;;;8.20;70.90;;;;;;6271455;28;20230;-64
2022/03/16 05:01:21;;;;;;;6.43;5.50;;;8.20;71.00;;;;;;6266089;28;20220;-64
2022/03/16 05:04:22;;;;;;;9.47;5.30;;;8.20;71.30;;;;;;6285826;28;20192;-64
2022/03/16 05:07:22;;;;;;;9.13;5.50;;;8.20;71.70;;;;;;6302014;28;20191;-65
2022/03/16 05:10:23;;;;;;;7.60;5.47;;;8.30;71.50;;;;;;6287780;28;20193;-64
2022/03/16 05:13:24;;;;;;;7.00;5.23;;;8.30;71.70;;;;;;6297846;28;20208;-65
2022/03/16 05:16:25;;;;;;;6.63;4.90;;;8.30;71.20;;;;;;6288496;28;20216;-64
2022/03/16 05:19:26;;;;;;;9.93;4.97;;;8.20;71.60;;;;;;6253882;28;20224;-64
2022/03/16 05:22:27;;;;;;;7.27;5.13;;;8.30;71.60;;;;;;6281085;28;20200;-61
2022/03/16 05:25:32;;;;;;;9.87;5.53;;;8.30;72.00;;;;;;6277283;28;20224;-61
2022/03/16 05:28:33;;;;;;;10.90;6.07;;;8.30;72.80;;;;;;6315551;28;20189;-61
2022/03/16 05:31:34;;;;;;;7.93;5.17;;;8.30;72.30;;;;;;6280600;28;20207;-61
2022/03/16 05:34:34;;;;;;;6.90;4.57;;;8.30;72.40;;;;;;6288292;28;20193;-60
2022/03/16 05:37:36;;;;;;;8.60;5.10;;;8.20;72.20;;;;;;6284208;28;20192;-61
2022/03/16 05:40:37;;;;;;;8.13;5.43;;;8.30;71.70;;;;;;6302895;28;20209;-61
2022/03/16 05:43:38;;;;;;;6.40;4.40;;;8.20;71.80;;;;;;6294798;28;20451;-60
2022/03/16 05:46:39;;;;;;;8.47;5.70;;;8.20;71.80;;;;;;6313286;28;20204;-61
2022/03/16 05:49:39;;;;;;;9.43;5.00;;;8.30;71.30;;;;;;6301920;28;20224;-61
2022/03/16 05:52:43;;;;;;;6.27;4.73;;;8.40;71.30;;;;;;6300799;28;20197;-62
2022/03/16 05:55:43;;;;;;;6.60;5.40;;;8.50;71.40;;;;;;6300888;28;20211;-61
2022/03/16 05:58:44;;;;;;;7.87;5.17;;;8.50;71.30;;;;;;6291971;28;20201;-61
2022/03/16 06:01:45;;;;;;;6.20;4.40;;;8.50;71.80;;;;;;6288144;28;20218;-62
2022/03/16 06:04:46;;;;;;;6.50;4.63;;;8.50;71.60;;;;;;6325528;28;20689;-62
2022/03/16 06:07:47;;;;;;;7.20;5.43;;;8.50;71.50;;;;;;6299376;28;20196;-61
2022/03/16 06:10:48;;;;;;;7.97;5.83;;;8.50;71.40;;;;;;6290190;28;20197;-60
2022/03/16 06:13:52;;;;;;;6.73;5.37;;;8.60;71.70;;;;;;6301308;28;20197;-61
2022/03/16 06:16:53;;;;;;;10.07;5.60;;;8.60;72.00;;;;;;6300385;28;20191;-61
2022/03/16 06:19:53;;;;;;;8.00;4.97;;;8.60;71.90;;;;;;6284971;28;20617;-63
2022/03/16 06:22:54;;;;;;;8.07;4.80;;;8.70;71.70;;;;;;6279562;28;20197;-61
2022/03/16 06:25:55;;;;;;;8.20;4.80;;;8.70;72.30;;;;;;6303261;28;20290;-62
2022/03/16 06:28:56;;;;;;;5.27;4.13;;;8.70;72.20;;;;;;6291870;28;20190;-62
2022/03/16 06:31:57;;;;;;;7.00;5.17;;;8.70;72.20;;;;;;6290239;28;20186;-62
2022/03/16 06:35:05;;;;;;;8.83;5.03;;;8.80;72.50;;;;;;6258590;28;20198;-62
2022/03/16 06:38:08;;;;;;;9.50;5.43;;;8.80;72.40;;;;;;6297256;28;20280;-61
2022/03/16 06:41:09;;;;;;;8.23;4.83;;;8.90;72.20;;;;;;6299864;28;20221;-62
2022/03/16 06:44:16;;;;;;;9.43;5.13;;;8.90;72.10;;;;;;6284624;28;20189;-61
2022/03/16 06:47:17;;;;;;;7.40;5.87;;;9.10;71.90;;;;;;6284986;28;20216;-61
2022/03/16 06:50:20;;;;;;;9.07;6.10;;;9.00;71.80;;;;;;6283343;28;20192;-61
2022/03/16 06:53:24;;;;;;;7.60;6.17;;;9.10;71.60;;;;;;6284059;28;20196;-63
2022/03/16 06:56:25;;;;;;;8.87;6.03;;;9.20;71.50;;;;;;6273896;28;20200;-62
2022/03/16 06:59:26;;;;;;;7.23;5.20;;;9.30;71.60;;;;;;6310930;28;20208;-61
2022/03/16 07:02:26;;;;;;;6.87;4.97;;;9.30;71.10;;;;;;6280577;28;20211;-63
2022/03/16 07:05:32;;;;;;;6.37;4.90;;;9.30;71.00;;;;;;6273124;28;20194;-61
2022/03/16 07:08:33;;;;;;;6.17;3.97;;;9.40;70.90;;;;;;6289664;28;20186;-61
2022/03/16 07:11:34;;;;;;;7.10;5.43;;;9.50;70.70;;;;;;6272854;28;20193;-60
2022/03/16 07:14:35;;;;;;;7.90;5.43;;;9.70;71.00;;;;;;6283399;28;20200;-61
2022/03/16 07:17:37;;;;;;;7.90;5.57;;;9.80;70.40;;;;;;6263511;28;20497;-60
2022/03/16 07:20:39;;;;;;;8.67;5.13;;;9.80;69.80;;;;;;6296919;28;20207;-61
2022/03/16 07:23:40;;;;;;;5.60;5.03;;;10.00;69.60;;;;;;6263809;28;20196;-61
2022/03/16 07:26:40;;;;;;;6.70;4.93;;;10.20;69.20;;;;;;6255108;28;20237;-61
2022/03/16 07:29:41;;;;;;;9.00;6.13;;;10.30;68.90;;;;;;6291865;28;20220;-61
2022/03/16 07:32:42;;;;;;;7.03;4.70;;;10.40;68.80;;;;;;6280020;28;20195;-60
2022/03/16 07:35:43;;;;;;;6.00;4.37;;;10.50;68.20;;;;;;6262320;28;20198;-61
2022/03/16 07:38:43;;;;;;;5.63;4.50;;;10.70;67.80;;;;;;6278973;28;20242;-61
2022/03/16 07:41:44;;;;;;;6.30;5.07;;;10.80;67.20;;;;;;6278062;28;20225;-61
2022/03/16 07:44:47;;;;;;;5.97;3.83;;;10.90;66.90;;;;;;6261177;28;20237;-61
2022/03/16 07:47:50;;;;;;;4.53;3.50;;;11.00;64.90;;;;;;6279041;28;20195;-61
2022/03/16 07:50:51;;;;;;;3.23;2.90;;;11.10;64.20;;;;;;6279620;28;20193;-61
2022/03/16 07:53:51;;;;;;;2.77;1.90;;;11.20;61.70;;;;;;6297220;28;20188;-61
2022/03/16 07:56:53;;;;;;;2.40;1.63;;;11.40;58.10;;;;;;6261005;28;20201;-61
2022/03/16 07:59:56;;;;;;;2.97;1.73;;;11.60;57.00;;;;;;6275204;28;20588;-61
2022/03/16 08:03:01;;;;;;;2.20;1.83;;;11.70;56.20;;;;;;6263279;28;20193;-61
2022/03/16 08:06:03;;;;;;;4.00;1.83;;;11.80;54.80;;;;;;6277707;28;20198;-61
2022/03/16 08:09:04;;;;;;;3.73;1.97;;;11.90;54.00;;;;;;6278807;28;20243;-61
2022/03/16 08:12:05;;;;;;;2.43;2.20;;;12.00;52.30;;;;;;6279362;28;20189;-61
2022/03/16 08:15:06;;;;;;;2.10;1.60;;;12.20;52.20;;;;;;6286061;28;20193;-61
2022/03/16 08:18:07;;;;;;;2.67;1.60;;;12.30;51.20;;;;;;6270197;28;20193;-61
2022/03/16 08:21:08;;;;;;;2.70;1.73;;;12.30;50.60;;;;;;6269521;28;20226;-61
2022/03/16 08:24:09;;;;;;;2.67;1.40;;;12.30;49.50;;;;;;6274155;28;20329;-61
2022/03/16 08:27:09;;;;;;;2.37;1.70;;;12.40;49.50;;;;;;6245478;28;20259;-61
2022/03/16 08:30:12;;;;;;;1.67;1.57;;;12.50;49.00;;;;;;6212583;28;20217;-61
2022/03/16 08:33:12;;;;;;;3.40;1.70;;;12.50;47.90;;;;;;6245139;28;20194;-61
2022/03/16 08:36:14;;;;;;;1.87;1.73;;;12.50;47.00;;;;;;6212102;28;20221;-61
2022/03/16 08:39:15;;;;;;;2.17;1.97;;;12.60;47.10;;;;;;6244543;28;20214;-61
2022/03/16 08:42:16;;;;;;;2.53;1.80;;;12.50;45.60;;;;;;6218730;28;20205;-61
2022/03/16 08:45:17;;;;;;;5.00;2.13;;;12.70;45.80;;;;;;6212139;28;20236;-60
2022/03/16 08:48:18;;;;;;;2.80;2.00;;;12.70;46.20;;;;;;6228102;28;20189;-60
2022/03/16 08:51:19;;;;;;;1.90;1.70;;;12.90;45.20;;;;;;6228014;28;20182;-61
2022/03/16 08:54:20;;;;;;;2.07;1.90;;;12.90;44.70;;;;;;6228714;28;20198;-61
2022/03/16 08:57:22;;;;;;;2.30;1.90;;;13.00;44.50;;;;;;6228945;28;20216;-61
2022/03/16 09:00:23;;;;;;;2.33;1.80;;;13.10;44.10;;;;;;6216333;28;20305;-61
2022/03/16 09:03:24;;;;;;;2.53;2.10;;;13.10;44.00;;;;;;6211656;28;20217;-61
2022/03/16 09:06:25;;;;;;;2.33;2.10;;;13.00;43.80;;;;;;6237913;28;20195;-61
2022/03/16 09:09:26;;;;;;;3.33;2.30;;;13.00;43.90;;;;;;6243966;28;20190;-61
2022/03/16 09:12:27;;;;;;;2.90;2.00;;;13.20;44.00;;;;;;6224404;28;20255;-61
2022/03/16 09:15:28;;;;;;;2.67;2.33;;;13.30;43.20;;;;;;6212932;28;20210;-60
2022/03/16 09:18:29;;;;;;;2.97;2.50;;;13.40;42.90;;;;;;6227948;28;20198;-61
2022/03/16 09:21:29;;;;;;;3.87;2.30;;;13.30;42.40;;;;;;6212324;28;20264;-61
2022/03/16 09:24:31;;;;;;;2.97;2.57;;;13.30;42.80;;;;;;6215835;28;20191;-61
2022/03/16 09:27:31;;;;;;;3.00;2.60;;;13.60;42.50;;;;;;6294833;28;20188;-61
2022/03/16 09:30:32;;;;;;;2.53;2.00;;;13.70;41.90;;;;;;6275824;28;20197;-61
2022/03/16 09:33:33;;;;;;;4.63;2.33;;;13.80;41.60;;;;;;6276983;28;20226;-61
2022/03/16 09:36:37;;;;;;;4.60;2.20;;;13.80;42.20;;;;;;6276885;28;20284;-61
2022/03/16 09:39:38;;;;;;;3.50;2.40;;;14.00;41.60;;;;;;6294046;28;20228;-61
2022/03/16 09:42:39;;;;;;;2.80;2.13;;;14.00;41.10;;;;;;6277328;28;20196;-61
2022/03/16 09:45:57;;;;;;;2.20;2.00;;;14.10;41.20;;;;;;6261266;28;20185;-61
2022/03/16 09:48:59;;;;;;;2.40;2.20;;;14.30;40.60;;;;;;6277089;28;20205;-61
2022/03/16 09:51:59;;;;;;;3.97;2.40;;;14.40;40.50;;;;;;6277325;28;20280;-61
2022/03/16 09:55:02;;;;;;;2.77;1.90;;;14.70;41.20;;;;;;6248485;28;20220;-61
2022/03/16 09:58:04;;;;;;;1.60;1.50;;;14.60;39.60;;;;;;6294345;28;20192;-61
2022/03/16 10:01:05;;;;;;;2.30;1.83;;;14.70;38.60;;;;;;6277830;28;20221;-61
2022/03/16 10:04:06;;;;;;;2.03;1.83;;;14.90;38.70;;;;;;6244597;28;20200;-61
2022/03/16 10:07:07;;;;;;;2.47;2.07;;;15.00;38.00;;;;;;6278808;28;20224;-61
2022/03/16 10:13:27;;;;;;;3.40;1.97;;;14.90;38.00;;;;;;6296721;28;20282;-61
2022/03/16 10:17:43;;;;;;;2.40;2.20;;;15.00;37.30;;;;;;6281083;28;20196;-61
2022/03/16 10:19:49;;;;;;;2.80;2.50;;;15.00;36.70;;;;;;6306185;28;20219;-61
2022/03/16 10:22:54;;;;;;;2.97;2.67;;;14.70;36.70;;;;;;6265525;28;20270;-62
2022/03/16 10:25:58;;;;;;;3.23;2.83;;;14.70;37.30;;;;;;6279808;28;20232;-61
2022/03/16 10:29:04;;;;;;;3.40;2.97;;;14.60;36.90;;;;;;6241431;28;20194;-61
2022/03/16 10:32:06;;;;;;;3.03;2.73;;;14.60;36.70;;;;;;6207970;28;20329;-61
2022/03/16 10:35:07;;;;;;;3.03;2.43;;;14.70;37.40;;;;;;6257667;28;20204;-61
2022/03/16 10:38:10;;;;;;;2.63;2.40;;;14.90;36.30;;;;;;6215445;28;20207;-61
2022/03/16 10:47:56;;;;;;;5.53;2.83;;;14.60;36.50;;;;;;6224357;28;20194;-61
2022/03/16 10:50:57;;;;;;;2.97;2.67;;;14.60;37.60;;;;;;6232040;28;20258;-61
2022/03/16 10:54:00;;;;;;;4.07;2.80;;;14.80;36.60;;;;;;6232297;28;20218;-61
2022/03/16 10:57:03;;;;;;;3.57;2.90;;;14.80;36.80;;;;;;6247233;28;20187;-61
2022/03/16 11:00:04;;;;;;;2.87;2.67;;;14.70;36.40;;;;;;6242455;28;20276;-61
2022/03/16 11:03:15;;;;;;;3.17;2.87;;;14.70;36.40;;;;;;6230512;28;20217;-60
2022/03/16 11:06:20;;;;;;;4.50;2.83;;;14.80;36.40;;;;;;6247094;28;20283;-61
2022/03/16 11:09:22;;;;;;;6.53;2.83;;;14.80;36.10;;;;;;6246050;28;20211;-61
2022/03/16 11:15:43;;;;;;;3.30;2.73;;;15.00;35.80;;;;;;6232905;28;20209;-61
2022/03/16 11:18:46;;;;;;;4.47;3.20;;;14.80;35.90;;;;;;6230502;28;20194;-61
2022/03/16 11:21:59;;;;;;;3.03;2.73;;;15.00;35.60;;;;;;6243239;28;20277;-61
2022/03/16 11:25:08;;;;;;;3.67;2.97;;;14.90;35.80;;;;;;6258314;28;20230;-61
2022/03/16 11:28:14;;;;;;;4.20;2.83;;;15.00;36.20;;;;;;6296756;28;20190;-60
2022/03/16 11:31:14;;;;;;;3.40;2.97;;;14.80;36.50;;;;;;6295706;28;20204;-61
2022/03/16 11:34:22;;;;;;;4.33;2.97;;;15.00;35.70;;;;;;6263350;28;20231;-61
2022/03/16 11:37:43;;;;;;;3.57;3.27;;;14.80;36.20;;;;;;6284599;28;20205;-61
2022/03/16 11:40:50;;;;;;;3.93;3.53;;;14.70;36.30;;;;;;6285034;28;20252;-60
2022/03/16 11:44:00;;;;;;;5.90;4.10;;;14.80;36.10;;;;;;6314196;28;20183;-60
2022/03/16 11:47:10;;;;;;;5.93;4.43;;;14.70;37.00;;;;;;6296889;28;20186;-60
2022/03/16 11:50:14;;;;;;;4.60;4.17;;;14.60;36.20;;;;;;6295244;28;20194;-61
2022/03/16 11:53:17;;;;;;;4.70;4.23;;;14.20;35.50;;;;;;6295481;28;20200;-61
2022/03/16 11:56:29;;;;;;;5.03;4.30;;;14.20;36.20;;;;;;6279420;28;20228;-63
2022/03/16 11:59:31;;;;;;;5.20;4.20;;;14.40;36.40;;;;;;6280178;28;20224;-61
2022/03/16 12:02:37;;;;;;;5.10;4.60;;;14.40;35.80;;;;;;6278030;28;20195;-62
2022/03/16 12:06:00;;;;;;;5.80;4.53;;;14.40;36.30;;;;;;6295999;28;20243;-61
2022/03/16 12:09:04;;;;;;;4.80;4.40;;;14.70;36.00;;;;;;6279287;28;20182;-61
2022/03/16 12:15:46;;;;;;;6.20;5.60;;;14.40;35.60;;;;;;6300518;28;20190;-61
2022/03/16 12:18:47;;;;;;;6.73;5.77;;;14.30;35.80;;;;;;6293729;28;20205;-61
2022/03/16 12:21:48;;;;;;;6.13;5.40;;;13.90;36.40;;;;;;6279649;28;20220;-61
2022/03/16 12:31:30;;;;;;;6.20;5.60;;;14.30;36.40;;;;;;6272941;28;20198;-60
2022/03/16 12:34:31;;;;;;;6.37;5.73;;;14.40;36.40;;;;;;6278807;28;20204;-64
2022/03/16 12:37:31;;;;;;;8.37;5.67;;;14.50;36.60;;;;;;6278474;28;20193;-61
2022/03/16 12:40:32;;;;;;;6.57;5.80;;;14.50;35.90;;;;;;6278595;28;20229;-62
2022/03/16 12:43:34;;;;;;;8.30;5.90;;;14.60;36.60;;;;;;6261353;28;20277;-62
2022/03/16 12:46:47;;;;;;;6.83;6.13;;;14.60;35.80;;;;;;6279401;28;20194;-62
2022/03/16 12:49:48;;;;;;;7.37;6.57;;;14.60;35.90;;;;;;6297410;28;20199;-62
2022/03/16 12:52:50;;;;;;;7.23;6.10;;;14.70;35.60;;;;;;6280330;28;20288;-62
2022/03/16 12:55:55;;;;;;;8.33;6.63;;;14.20;36.30;;;;;;6294349;28;20299;-62
2022/03/16 12:58:56;;;;;;;6.90;6.20;;;14.20;36.50;;;;;;6278712;28;20197;-62
2022/03/16 13:01:58;;;;;;;8.10;6.73;;;14.20;36.70;;;;;;6272547;28;20216;-63
2022/03/16 13:05:00;;;;;;;8.00;7.20;;;14.30;36.30;;;;;;6307958;28;20246;-63
2022/03/16 13:08:01;;;;;;;7.67;6.87;;;14.30;36.60;;;;;;6278778;28;20338;-62
2022/03/16 13:11:17;;;;;;;7.77;6.93;;;14.20;36.70;;;;;;6276896;28;20200;-61
2022/03/16 13:14:18;;;;;;;8.47;7.67;;;14.00;36.70;;;;;;6262953;28;20178;-60
2022/03/16 13:17:19;;;;;;;14.53;8.00;;;13.80;37.40;;;;;;6277608;28;20338;-59
2022/03/16 13:20:24;;;;;;;12.90;7.90;;;13.60;37.50;;;;;;6260203;28;20330;-60
2022/03/16 13:23:32;;;;;;;8.50;7.50;;;13.60;37.80;;;;;;6273501;28;20214;-61
2022/03/16 13:26:34;;;;;;;8.33;7.40;;;13.70;37.70;;;;;;6284045;28;20233;-58
2022/03/16 13:29:41;;;;;;;8.80;7.90;;;13.70;37.70;;;;;;6296620;28;20205;-59
2022/03/16 13:32:44;;;;;;;9.10;7.57;;;13.60;37.90;;;;;;6295268;28;20193;-61
2022/03/16 13:35:45;;;;;;;10.03;8.37;;;13.50;38.10;;;;;;6296997;28;20213;-60
2022/03/16 13:38:49;;;;;;;8.43;7.63;;;13.40;38.20;;;;;;6304188;28;20207;-61
2022/03/16 13:42:13;;;;;;;9.57;8.57;;;13.30;38.70;;;;;;6284447;28;20217;-61
2022/03/16 13:45:15;;;;;;;9.70;7.97;;;13.40;38.40;;;;;;6314626;28;20192;-62
2022/03/16 13:48:25;;;;;;;9.10;8.20;;;13.40;38.50;;;;;;6316955;28;20193;-62
2022/03/16 13:51:26;;;;;;;9.77;8.77;;;13.30;39.00;;;;;;6323294;28;20280;-61
2022/03/16 13:54:26;;;;;;;10.30;9.07;;;13.30;38.80;;;;;;6299499;28;20254;-60
2022/03/16 13:57:29;;;;;;;10.47;9.10;;;13.10;39.10;;;;;;6307587;28;20219;-60
2022/03/16 14:00:44;;;;;;;9.37;8.47;;;13.10;39.40;;;;;;6313030;28;20227;-61
2022/03/16 14:03:45;;;;;;;9.60;8.43;;;13.30;39.20;;;;;;6296215;28;20200;-60
2022/03/16 14:06:47;;;;;;;10.10;9.03;;;13.30;39.20;;;;;;6285491;28;20192;-60
2022/03/16 14:09:50;;;;;;;12.93;9.63;;;13.20;39.20;;;;;;6287291;28;20201;-61
2022/03/16 14:13:02;;;;;;;10.83;9.53;;;13.30;39.20;;;;;;6302336;28;20193;-61
2022/03/16 14:16:14;;;;;;;10.27;8.90;;;13.40;39.10;;;;;;6295993;28;20193;-62
2022/03/16 14:19:29;;;;;;;10.37;9.23;;;13.40;38.80;;;;;;6285325;28;20288;-60
2022/03/16 14:22:30;;;;;;;10.67;9.30;;;13.30;38.90;;;;;;6310368;28;20189;-61
2022/03/16 14:25:38;;;;;;;12.10;9.00;;;13.30;39.50;;;;;;6294649;28;20267;-62
2022/03/16 14:28:38;;;;;;;10.73;9.57;;;13.30;39.50;;;;;;6295122;28;20429;-61
2022/03/16 14:31:39;;;;;;;11.37;9.80;;;13.20;39.70;;;;;;6289225;28;20200;-62
2022/03/16 14:34:41;;;;;;;12.20;10.70;;;13.20;39.80;;;;;;6310595;28;20239;-61
2022/03/16 14:37:43;;;;;;;11.30;10.10;;;13.10;39.90;;;;;;6294421;28;20523;-60
2022/03/16 14:40:54;;;;;;;11.30;10.10;;;13.00;39.90;;;;;;6291136;28;20205;-60
2022/03/16 14:43:55;;;;;;;12.90;10.50;;;13.10;40.60;;;;;;6303901;28;20209;-62
2022/03/16 14:46:57;;;;;;;11.43;10.23;;;12.80;40.30;;;;;;6320490;28;20261;-62
2022/03/16 14:50:00;;;;;;;12.03;10.13;;;12.80;40.40;;;;;;6290745;28;20196;-62
2022/03/16 14:53:04;;;;;;;10.80;9.70;;;12.80;41.00;;;;;;6300859;28;20194;-61
2022/03/16 14:56:05;;;;;;;13.53;11.10;;;12.80;41.00;;;;;;6302516;28;20196;-60
2022/03/16 14:59:06;;;;;;;12.93;11.53;;;12.80;40.80;;;;;;6269342;28;20216;-59
2022/03/16 15:02:06;;;;;;;11.07;9.47;;;12.80;41.40;;;;;;6231930;28;20542;-61
2022/03/16 15:05:08;;;;;;;11.73;9.87;;;13.00;41.00;;;;;;6271156;28;20216;-61
2022/03/16 15:08:09;;;;;;;11.70;10.53;;;12.90;40.70;;;;;;6288509;28;20406;-61
2022/03/16 15:11:10;;;;;;;11.53;10.27;;;12.90;41.00;;;;;;6322007;28;20221;-60
2022/03/16 15:14:11;;;;;;;11.33;10.23;;;12.80;41.00;;;;;;6300391;28;20232;-61
2022/03/16 15:17:12;;;;;;;11.27;10.17;;;12.70;40.90;;;;;;6270043;28;20206;-62
2022/03/16 15:20:14;;;;;;;11.43;10.20;;;12.30;41.70;;;;;;6281014;28;20267;-62
2022/03/16 15:23:14;;;;;;;11.17;10.03;;;12.40;42.00;;;;;;6317635;28;20215;-60
2022/03/16 15:26:15;;;;;;;12.53;10.30;;;12.40;42.30;;;;;;6301254;28;20301;-62
2022/03/16 15:29:16;;;;;;;13.10;10.70;;;12.50;41.80;;;;;;6316153;28;20193;-63
2022/03/16 15:32:17;;;;;;;12.40;10.97;;;12.50;41.00;;;;;;6283259;28;20188;-60
2022/03/16 15:35:18;;;;;;;12.40;11.10;;;12.50;41.10;;;;;;6282304;28;20193;-62
2022/03/16 15:38:20;;;;;;;11.00;9.83;;;12.40;41.90;;;;;;6282664;28;20196;-62
2022/03/16 15:44:40;;;;;;;12.47;10.43;;;12.40;42.30;;;;;;6311142;28;20204;-61
2022/03/16 15:47:42;;;;;;;12.43;10.83;;;12.50;42.50;;;;;;6301161;28;20212;-61
2022/03/16 15:50:43;;;;;;;13.83;10.50;;;12.60;42.20;;;;;;6328431;28;20280;-61
2022/03/16 15:53:43;;;;;;;12.03;10.37;;;12.40;42.70;;;;;;6311608;28;20196;-61
2022/03/16 15:56:46;;;;;;;12.57;11.10;;;12.60;42.30;;;;;;6293598;28;20253;-60
2022/03/16 15:59:46;;;;;;;12.50;10.47;;;12.50;42.30;;;;;;6286175;28;20217;-60
2022/03/16 16:02:50;;;;;;;12.53;10.73;;;12.60;42.40;;;;;;6301864;28;20217;-61
2022/03/16 16:05:52;;;;;;;11.97;10.00;;;12.50;42.20;;;;;;6284632;28;20185;-61
2022/03/16 16:08:53;;;;;;;14.03;10.80;;;12.60;41.70;;;;;;6305988;28;20189;-61
2022/03/16 16:11:55;;;;;;;12.53;11.17;;;12.80;41.60;;;;;;6286016;28;20196;-60
2022/03/16 16:14:56;;;;;;;11.70;10.60;;;12.70;41.50;;;;;;6295751;28;20197;-61
2022/03/16 16:17:57;;;;;;;11.83;9.53;;;12.80;41.50;;;;;;6283122;28;20184;-61